sensor_id;sensor_type;location;lat;lon;timestamp;P1;durP1;ratioP1;P2;durP2;ratioP2
74614;SDS011;63121;51.458;-0.110;2023-10-09T00:02:04;10.38;;;3.45;;
74614;SDS011;63121;51.458;-0.110;2023-10-09T00:04:35;10.02;;;3.78;;
74614;SDS011;63121;51.458;-0.110;2023-10-09T00:07:02;11.73;;;3.67;;
74614;SDS011;63121;51.458;-0.110;2023-10-09T00:09:28;10.32;;;3.95;;
74614;SDS011;63121;51.458;-0.110;2023-10-09T00:11:57;12.27;;;4.15;;
74614;SDS011;63121;51.458;-0.110;2023-10-09T00:16:50;9.63;;;3.70;;
74614;SDS011;63121;51.458;-0.110;2023-10-09T00:19:26;13.90;;;4.00;;
74614;SDS011;63121;51.458;-0.110;2023-10-09T00:21:58;11.68;;;3.92;;
74614;SDS011;63121;51.458;-0.110;2023-10-09T00:24:29;10.45;;;4.13;;
74614;SDS011;63121;51.458;-0.110;2023-10-09T00:26:56;11.60;;;4.10;;
74614;SDS011;63121;51.458;-0.110;2023-10-09T00:29:36;12.07;;;4.15;;
74614;SDS011;63121;51.458;-0.110;2023-10-09T00:32:07;11.02;;;3.80;;
74614;SDS011;63121;51.458;-0.110;2023-10-09T00:34:39;9.15;;;3.78;;
74614;SDS011;63121;51.458;-0.110;2023-10-09T00:37:13;12.02;;;3.67;;
74614;SDS011;63121;51.458;-0.110;2023-10-09T00:39:42;10.40;;;3.78;;
74614;SDS011;63121;51.458;-0.110;2023-10-09T00:42:13;10.20;;;4.00;;
74614;SDS011;63121;51.458;-0.110;2023-10-09T00:44:46;10.48;;;4.03;;
74614;SDS011;63121;51.458;-0.110;2023-10-09T00:47:14;11.73;;;4.13;;
74614;SDS011;63121;51.458;-0.110;2023-10-09T00:52:28;10.43;;;3.80;;
74614;SDS011;63121;51.458;-0.110;2023-10-09T00:55:18;11.60;;;4.28;;
74614;SDS011;63121;51.458;-0.110;2023-10-09T00:58:02;11.15;;;4.28;;
74614;SDS011;63121;51.458;-0.110;2023-10-09T01:00:34;10.60;;;3.65;;
74614;SDS011;63121;51.458;-0.110;2023-10-09T01:03:09;10.05;;;3.90;;
74614;SDS011;63121;51.458;-0.110;2023-10-09T01:05:41;13.57;;;4.32;;
74614;SDS011;63121;51.458;-0.110;2023-10-09T01:08:40;11.25;;;4.03;;
74614;SDS011;63121;51.458;-0.110;2023-10-09T01:11:15;11.48;;;4.03;;
74614;SDS011;63121;51.458;-0.110;2023-10-09T01:13:48;11.95;;;4.15;;
74614;SDS011;63121;51.458;-0.110;2023-10-09T01:16:19;12.07;;;4.57;;
74614;SDS011;63121;51.458;-0.110;2023-10-09T01:18:48;12.02;;;4.50;;
74614;SDS011;63121;51.458;-0.110;2023-10-09T01:21:15;12.50;;;3.83;;
74614;SDS011;63121;51.458;-0.110;2023-10-09T01:23:42;10.98;;;4.47;;
74614;SDS011;63121;51.458;-0.110;2023-10-09T01:26:27;13.15;;;4.60;;
74614;SDS011;63121;51.458;-0.110;2023-10-09T01:28:57;10.70;;;4.25;;
74614;SDS011;63121;51.458;-0.110;2023-10-09T01:31:25;11.82;;;3.92;;
74614;SDS011;63121;51.458;-0.110;2023-10-09T01:34:02;12.05;;;4.18;;
74614;SDS011;63121;51.458;-0.110;2023-10-09T01:36:34;11.05;;;3.72;;
74614;SDS011;63121;51.458;-0.110;2023-10-09T01:39:04;9.77;;;3.53;;
74614;SDS011;63121;51.458;-0.110;2023-10-09T01:41:48;10.93;;;4.35;;
74614;SDS011;63121;51.458;-0.110;2023-10-09T01:44:17;10.52;;;3.75;;
74614;SDS011;63121;51.458;-0.110;2023-10-09T01:46:44;11.32;;;3.85;;
74614;SDS011;63121;51.458;-0.110;2023-10-09T01:49:11;9.70;;;4.05;;
74614;SDS011;63121;51.458;-0.110;2023-10-09T01:51:45;13.23;;;4.18;;
74614;SDS011;63121;51.458;-0.110;2023-10-09T01:56:52;11.13;;;3.85;;
74614;SDS011;63121;51.458;-0.110;2023-10-09T01:59:18;11.52;;;3.83;;
74614;SDS011;63121;51.458;-0.110;2023-10-09T02:01:46;9.65;;;3.35;;
74614;SDS011;63121;51.458;-0.110;2023-10-09T02:06:39;10.70;;;3.47;;
74614;SDS011;63121;51.458;-0.110;2023-10-09T02:09:05;9.98;;;3.50;;
74614;SDS011;63121;51.458;-0.110;2023-10-09T02:11:31;9.50;;;3.47;;
74614;SDS011;63121;51.458;-0.110;2023-10-09T02:14:08;9.15;;;3.55;;
74614;SDS011;63121;51.458;-0.110;2023-10-09T02:16:47;10.45;;;3.33;;
74614;SDS011;63121;51.458;-0.110;2023-10-09T02:19:33;8.82;;;3.90;;
74614;SDS011;63121;51.458;-0.110;2023-10-09T02:22:03;9.55;;;3.85;;
74614;SDS011;63121;51.458;-0.110;2023-10-09T02:24:41;11.57;;;3.88;;
74614;SDS011;63121;51.458;-0.110;2023-10-09T02:27:15;9.93;;;3.28;;
74614;SDS011;63121;51.458;-0.110;2023-10-09T02:30:00;11.82;;;3.67;;
74614;SDS011;63121;51.458;-0.110;2023-10-09T02:32:33;10.57;;;3.60;;
74614;SDS011;63121;51.458;-0.110;2023-10-09T02:37:34;13.55;;;4.10;;
74614;SDS011;63121;51.458;-0.110;2023-10-09T02:40:02;9.15;;;3.25;;
74614;SDS011;63121;51.458;-0.110;2023-10-09T02:42:34;8.98;;;3.28;;
74614;SDS011;63121;51.458;-0.110;2023-10-09T02:44:59;9.20;;;3.58;;
74614;SDS011;63121;51.458;-0.110;2023-10-09T02:47:25;12.07;;;3.33;;
74614;SDS011;63121;51.458;-0.110;2023-10-09T02:50:03;11.65;;;3.50;;
74614;SDS011;63121;51.458;-0.110;2023-10-09T02:52:44;9.18;;;3.38;;
74614;SDS011;63121;51.458;-0.110;2023-10-09T02:55:12;9.77;;;3.47;;
74614;SDS011;63121;51.458;-0.110;2023-10-09T02:57:49;10.10;;;3.50;;
74614;SDS011;63121;51.458;-0.110;2023-10-09T03:00:21;10.38;;;3.33;;
74614;SDS011;63121;51.458;-0.110;2023-10-09T03:02:54;9.20;;;3.53;;
74614;SDS011;63121;51.458;-0.110;2023-10-09T03:05:23;8.82;;;2.92;;
74614;SDS011;63121;51.458;-0.110;2023-10-09T03:07:49;7.85;;;3.17;;
74614;SDS011;63121;51.458;-0.110;2023-10-09T03:10:17;9.23;;;3.05;;
74614;SDS011;63121;51.458;-0.110;2023-10-09T03:12:42;10.20;;;3.30;;
74614;SDS011;63121;51.458;-0.110;2023-10-09T03:15:08;9.55;;;3.20;;
74614;SDS011;63121;51.458;-0.110;2023-10-09T03:17:34;10.52;;;3.00;;
74614;SDS011;63121;51.458;-0.110;2023-10-09T03:20:04;9.80;;;3.60;;
74614;SDS011;63121;51.458;-0.110;2023-10-09T03:22:38;11.13;;;3.75;;
74614;SDS011;63121;51.458;-0.110;2023-10-09T03:25:04;11.45;;;4.35;;
74614;SDS011;63121;51.458;-0.110;2023-10-09T03:30:02;9.00;;;3.08;;
74614;SDS011;63121;51.458;-0.110;2023-10-09T03:32:30;8.85;;;3.05;;
74614;SDS011;63121;51.458;-0.110;2023-10-09T03:34:55;14.63;;;3.40;;
74614;SDS011;63121;51.458;-0.110;2023-10-09T03:37:21;8.93;;;3.33;;
74614;SDS011;63121;51.458;-0.110;2023-10-09T03:39:47;8.63;;;3.33;;
74614;SDS011;63121;51.458;-0.110;2023-10-09T03:42:13;8.75;;;3.20;;
74614;SDS011;63121;51.458;-0.110;2023-10-09T03:44:44;11.15;;;3.22;;
74614;SDS011;63121;51.458;-0.110;2023-10-09T03:47:15;10.38;;;3.50;;
74614;SDS011;63121;51.458;-0.110;2023-10-09T03:49:42;9.57;;;3.28;;
74614;SDS011;63121;51.458;-0.110;2023-10-09T03:52:08;9.45;;;2.75;;
74614;SDS011;63121;51.458;-0.110;2023-10-09T03:54:34;8.75;;;2.90;;
74614;SDS011;63121;51.458;-0.110;2023-10-09T03:57:00;10.90;;;3.03;;
74614;SDS011;63121;51.458;-0.110;2023-10-09T03:59:26;8.98;;;3.05;;
74614;SDS011;63121;51.458;-0.110;2023-10-09T04:01:55;11.20;;;3.63;;
74614;SDS011;63121;51.458;-0.110;2023-10-09T04:04:22;7.95;;;2.80;;
74614;SDS011;63121;51.458;-0.110;2023-10-09T04:06:48;9.52;;;3.42;;
74614;SDS011;63121;51.458;-0.110;2023-10-09T04:09:14;9.18;;;3.33;;
74614;SDS011;63121;51.458;-0.110;2023-10-09T04:11:49;9.75;;;3.25;;
74614;SDS011;63121;51.458;-0.110;2023-10-09T04:14:41;9.32;;;3.10;;
74614;SDS011;63121;51.458;-0.110;2023-10-09T04:17:19;9.48;;;3.40;;
74614;SDS011;63121;51.458;-0.110;2023-10-09T04:19:48;9.77;;;3.30;;
74614;SDS011;63121;51.458;-0.110;2023-10-09T04:22:14;9.20;;;3.38;;
74614;SDS011;63121;51.458;-0.110;2023-10-09T04:24:51;9.80;;;3.40;;
74614;SDS011;63121;51.458;-0.110;2023-10-09T04:27:17;11.52;;;3.35;;
74614;SDS011;63121;51.458;-0.110;2023-10-09T04:29:42;11.10;;;3.40;;
74614;SDS011;63121;51.458;-0.110;2023-10-09T04:32:14;10.27;;;3.20;;
74614;SDS011;63121;51.458;-0.110;2023-10-09T04:34:43;10.85;;;3.38;;
74614;SDS011;63121;51.458;-0.110;2023-10-09T04:37:21;9.60;;;3.30;;
74614;SDS011;63121;51.458;-0.110;2023-10-09T04:40:02;10.68;;;3.42;;
74614;SDS011;63121;51.458;-0.110;2023-10-09T04:42:37;11.23;;;3.25;;
74614;SDS011;63121;51.458;-0.110;2023-10-09T04:45:04;9.18;;;2.92;;
74614;SDS011;63121;51.458;-0.110;2023-10-09T04:50:15;9.57;;;3.65;;
74614;SDS011;63121;51.458;-0.110;2023-10-09T04:52:43;9.80;;;3.35;;
74614;SDS011;63121;51.458;-0.110;2023-10-09T04:55:09;10.88;;;3.15;;
74614;SDS011;63121;51.458;-0.110;2023-10-09T04:57:38;10.82;;;3.53;;
74614;SDS011;63121;51.458;-0.110;2023-10-09T05:00:11;9.13;;;2.90;;
74614;SDS011;63121;51.458;-0.110;2023-10-09T05:02:50;8.35;;;3.42;;
74614;SDS011;63121;51.458;-0.110;2023-10-09T05:05:24;8.18;;;3.20;;
74614;SDS011;63121;51.458;-0.110;2023-10-09T05:08:12;9.60;;;3.30;;
74614;SDS011;63121;51.458;-0.110;2023-10-09T05:10:54;9.60;;;3.05;;
74614;SDS011;63121;51.458;-0.110;2023-10-09T05:13:40;9.57;;;3.40;;
74614;SDS011;63121;51.458;-0.110;2023-10-09T05:16:12;9.73;;;3.20;;
74614;SDS011;63121;51.458;-0.110;2023-10-09T05:18:50;8.57;;;3.25;;
74614;SDS011;63121;51.458;-0.110;2023-10-09T05:24:02;10.23;;;2.90;;
74614;SDS011;63121;51.458;-0.110;2023-10-09T05:26:37;9.32;;;2.92;;
74614;SDS011;63121;51.458;-0.110;2023-10-09T05:29:13;8.85;;;2.72;;
74614;SDS011;63121;51.458;-0.110;2023-10-09T05:31:58;9.05;;;3.20;;
74614;SDS011;63121;51.458;-0.110;2023-10-09T05:34:27;11.32;;;3.53;;
74614;SDS011;63121;51.458;-0.110;2023-10-09T05:36:59;9.45;;;3.67;;
74614;SDS011;63121;51.458;-0.110;2023-10-09T05:39:49;8.13;;;2.53;;
74614;SDS011;63121;51.458;-0.110;2023-10-09T05:42:27;9.77;;;2.60;;
74614;SDS011;63121;51.458;-0.110;2023-10-09T05:45:15;10.43;;;3.20;;
74614;SDS011;63121;51.458;-0.110;2023-10-09T05:48:00;9.88;;;3.60;;
74614;SDS011;63121;51.458;-0.110;2023-10-09T05:50:28;8.48;;;3.03;;
74614;SDS011;63121;51.458;-0.110;2023-10-09T05:53:03;8.90;;;2.90;;
74614;SDS011;63121;51.458;-0.110;2023-10-09T05:55:42;10.68;;;3.45;;
74614;SDS011;63121;51.458;-0.110;2023-10-09T05:58:37;11.75;;;3.28;;
74614;SDS011;63121;51.458;-0.110;2023-10-09T06:01:21;9.75;;;3.10;;
74614;SDS011;63121;51.458;-0.110;2023-10-09T06:04:04;8.77;;;3.17;;
74614;SDS011;63121;51.458;-0.110;2023-10-09T06:06:40;11.35;;;3.45;;
74614;SDS011;63121;51.458;-0.110;2023-10-09T06:09:21;13.18;;;3.50;;
74614;SDS011;63121;51.458;-0.110;2023-10-09T06:11:47;8.75;;;2.88;;
74614;SDS011;63121;51.458;-0.110;2023-10-09T06:14:18;8.88;;;2.95;;
74614;SDS011;63121;51.458;-0.110;2023-10-09T06:16:56;8.05;;;3.05;;
74614;SDS011;63121;51.458;-0.110;2023-10-09T06:19:22;9.48;;;3.00;;
74614;SDS011;63121;51.458;-0.110;2023-10-09T06:21:52;9.07;;;3.15;;
74614;SDS011;63121;51.458;-0.110;2023-10-09T06:24:27;8.32;;;2.75;;
74614;SDS011;63121;51.458;-0.110;2023-10-09T06:26:58;10.30;;;3.45;;
74614;SDS011;63121;51.458;-0.110;2023-10-09T06:29:25;11.13;;;3.17;;
74614;SDS011;63121;51.458;-0.110;2023-10-09T06:32:09;11.82;;;3.53;;
74614;SDS011;63121;51.458;-0.110;2023-10-09T06:34:48;8.68;;;3.15;;
74614;SDS011;63121;51.458;-0.110;2023-10-09T06:37:21;8.70;;;3.03;;
74614;SDS011;63121;51.458;-0.110;2023-10-09T06:42:35;9.40;;;3.10;;
74614;SDS011;63121;51.458;-0.110;2023-10-09T06:45:08;9.95;;;3.35;;
74614;SDS011;63121;51.458;-0.110;2023-10-09T06:47:42;8.43;;;3.00;;
74614;SDS011;63121;51.458;-0.110;2023-10-09T06:50:29;10.82;;;3.70;;
74614;SDS011;63121;51.458;-0.110;2023-10-09T06:53:13;10.05;;;3.28;;
74614;SDS011;63121;51.458;-0.110;2023-10-09T06:55:39;7.05;;;2.55;;
74614;SDS011;63121;51.458;-0.110;2023-10-09T06:58:20;8.32;;;3.13;;
74614;SDS011;63121;51.458;-0.110;2023-10-09T07:00:53;11.40;;;3.30;;
74614;SDS011;63121;51.458;-0.110;2023-10-09T07:03:23;10.18;;;3.70;;
74614;SDS011;63121;51.458;-0.110;2023-10-09T07:06:07;8.57;;;2.92;;
74614;SDS011;63121;51.458;-0.110;2023-10-09T07:08:55;13.38;;;3.53;;
74614;SDS011;63121;51.458;-0.110;2023-10-09T07:14:04;7.68;;;2.78;;
74614;SDS011;63121;51.458;-0.110;2023-10-09T07:17:00;8.68;;;3.03;;
74614;SDS011;63121;51.458;-0.110;2023-10-09T07:19:47;9.57;;;3.22;;
74614;SDS011;63121;51.458;-0.110;2023-10-09T07:22:16;9.35;;;3.00;;
74614;SDS011;63121;51.458;-0.110;2023-10-09T07:24:48;9.25;;;2.78;;
74614;SDS011;63121;51.458;-0.110;2023-10-09T07:27:38;10.20;;;3.30;;
74614;SDS011;63121;51.458;-0.110;2023-10-09T07:30:11;9.30;;;2.95;;
74614;SDS011;63121;51.458;-0.110;2023-10-09T07:35:36;9.65;;;3.00;;
74614;SDS011;63121;51.458;-0.110;2023-10-09T07:38:19;11.02;;;3.25;;
74614;SDS011;63121;51.458;-0.110;2023-10-09T07:40:47;10.38;;;3.53;;
74614;SDS011;63121;51.458;-0.110;2023-10-09T07:43:24;9.68;;;3.15;;
74614;SDS011;63121;51.458;-0.110;2023-10-09T07:46:01;10.10;;;3.33;;
74614;SDS011;63121;51.458;-0.110;2023-10-09T07:48:31;9.98;;;3.20;;
74614;SDS011;63121;51.458;-0.110;2023-10-09T07:51:20;8.82;;;3.10;;
74614;SDS011;63121;51.458;-0.110;2023-10-09T07:53:51;8.55;;;3.00;;
74614;SDS011;63121;51.458;-0.110;2023-10-09T07:56:32;8.73;;;3.47;;
74614;SDS011;63121;51.458;-0.110;2023-10-09T07:59:04;9.73;;;3.47;;
74614;SDS011;63121;51.458;-0.110;2023-10-09T08:01:36;10.15;;;3.33;;
74614;SDS011;63121;51.458;-0.110;2023-10-09T08:04:24;11.27;;;3.63;;
74614;SDS011;63121;51.458;-0.110;2023-10-09T08:07:03;12.75;;;3.35;;
74614;SDS011;63121;51.458;-0.110;2023-10-09T08:09:32;9.20;;;2.70;;
74614;SDS011;63121;51.458;-0.110;2023-10-09T08:12:16;13.00;;;3.67;;
74614;SDS011;63121;51.458;-0.110;2023-10-09T08:15:00;8.52;;;2.95;;
74614;SDS011;63121;51.458;-0.110;2023-10-09T08:17:47;10.25;;;3.50;;
74614;SDS011;63121;51.458;-0.110;2023-10-09T08:20:24;9.55;;;2.97;;
74614;SDS011;63121;51.458;-0.110;2023-10-09T08:23:01;9.00;;;2.75;;
74614;SDS011;63121;51.458;-0.110;2023-10-09T08:25:29;10.18;;;3.33;;
74614;SDS011;63121;51.458;-0.110;2023-10-09T08:28:00;9.45;;;3.38;;
74614;SDS011;63121;51.458;-0.110;2023-10-09T08:30:39;12.57;;;3.00;;
74614;SDS011;63121;51.458;-0.110;2023-10-09T08:33:16;9.20;;;3.35;;
74614;SDS011;63121;51.458;-0.110;2023-10-09T08:35:51;10.13;;;3.47;;
74614;SDS011;63121;51.458;-0.110;2023-10-09T08:38:20;9.35;;;3.28;;
74614;SDS011;63121;51.458;-0.110;2023-10-09T08:40:48;13.65;;;3.70;;
74614;SDS011;63121;51.458;-0.110;2023-10-09T08:43:19;8.30;;;2.85;;
74614;SDS011;63121;51.458;-0.110;2023-10-09T08:45:52;9.00;;;2.83;;
74614;SDS011;63121;51.458;-0.110;2023-10-09T08:48:19;8.60;;;2.83;;
74614;SDS011;63121;51.458;-0.110;2023-10-09T08:50:47;11.20;;;3.72;;
74614;SDS011;63121;51.458;-0.110;2023-10-09T08:53:19;10.40;;;3.55;;
74614;SDS011;63121;51.458;-0.110;2023-10-09T08:58:11;9.68;;;3.10;;
74614;SDS011;63121;51.458;-0.110;2023-10-09T09:00:46;11.38;;;3.30;;
74614;SDS011;63121;51.458;-0.110;2023-10-09T09:03:16;11.68;;;3.35;;
74614;SDS011;63121;51.458;-0.110;2023-10-09T09:05:46;12.05;;;3.60;;
74614;SDS011;63121;51.458;-0.110;2023-10-09T09:08:26;16.38;;;4.05;;
74614;SDS011;63121;51.458;-0.110;2023-10-09T09:10:59;10.88;;;3.30;;
74614;SDS011;63121;51.458;-0.110;2023-10-09T09:13:41;10.73;;;3.47;;
74614;SDS011;63121;51.458;-0.110;2023-10-09T09:16:17;9.35;;;2.83;;
74614;SDS011;63121;51.458;-0.110;2023-10-09T09:19:01;12.23;;;3.47;;
74614;SDS011;63121;51.458;-0.110;2023-10-09T09:21:34;13.40;;;3.30;;
74614;SDS011;63121;51.458;-0.110;2023-10-09T09:24:11;13.75;;;3.45;;
74614;SDS011;63121;51.458;-0.110;2023-10-09T09:26:53;10.35;;;3.25;;
74614;SDS011;63121;51.458;-0.110;2023-10-09T09:32:09;10.55;;;3.38;;
74614;SDS011;63121;51.458;-0.110;2023-10-09T09:34:49;9.38;;;3.25;;
74614;SDS011;63121;51.458;-0.110;2023-10-09T09:37:20;11.30;;;3.22;;
74614;SDS011;63121;51.458;-0.110;2023-10-09T09:39:47;15.45;;;3.20;;
74614;SDS011;63121;51.458;-0.110;2023-10-09T09:42:16;11.07;;;3.47;;
74614;SDS011;63121;51.458;-0.110;2023-10-09T09:44:43;10.48;;;3.33;;
74614;SDS011;63121;51.458;-0.110;2023-10-09T09:47:13;11.20;;;3.45;;
74614;SDS011;63121;51.458;-0.110;2023-10-09T09:49:51;10.23;;;3.85;;
74614;SDS011;63121;51.458;-0.110;2023-10-09T09:52:18;12.43;;;3.45;;
74614;SDS011;63121;51.458;-0.110;2023-10-09T09:54:44;9.25;;;3.08;;
74614;SDS011;63121;51.458;-0.110;2023-10-09T09:57:09;10.00;;;3.25;;
74614;SDS011;63121;51.458;-0.110;2023-10-09T09:59:39;10.55;;;3.50;;
74614;SDS011;63121;51.458;-0.110;2023-10-09T10:02:38;8.60;;;3.05;;
74614;SDS011;63121;51.458;-0.110;2023-10-09T10:05:06;11.52;;;3.80;;
74614;SDS011;63121;51.458;-0.110;2023-10-09T10:07:37;9.48;;;3.33;;
74614;SDS011;63121;51.458;-0.110;2023-10-09T10:13:04;10.20;;;3.15;;
74614;SDS011;63121;51.458;-0.110;2023-10-09T10:18:21;9.63;;;3.03;;
74614;SDS011;63121;51.458;-0.110;2023-10-09T10:23:45;9.50;;;3.17;;
74614;SDS011;63121;51.458;-0.110;2023-10-09T10:26:17;9.95;;;3.38;;
74614;SDS011;63121;51.458;-0.110;2023-10-09T10:32:02;10.75;;;3.50;;
74614;SDS011;63121;51.458;-0.110;2023-10-09T10:37:36;9.05;;;3.70;;
74614;SDS011;63121;51.458;-0.110;2023-10-09T10:40:09;9.15;;;2.90;;
74614;SDS011;63121;51.458;-0.110;2023-10-09T10:43:03;10.50;;;3.08;;
74614;SDS011;63121;51.458;-0.110;2023-10-09T10:45:37;11.52;;;3.65;;
74614;SDS011;63121;51.458;-0.110;2023-10-09T10:48:08;8.77;;;3.33;;
74614;SDS011;63121;51.458;-0.110;2023-10-09T10:50:48;11.43;;;3.00;;
74614;SDS011;63121;51.458;-0.110;2023-10-09T10:55:56;13.55;;;3.40;;
74614;SDS011;63121;51.458;-0.110;2023-10-09T10:58:43;9.25;;;2.97;;
74614;SDS011;63121;51.458;-0.110;2023-10-09T11:01:30;8.77;;;3.03;;
74614;SDS011;63121;51.458;-0.110;2023-10-09T11:04:18;8.88;;;3.15;;
74614;SDS011;63121;51.458;-0.110;2023-10-09T11:06:54;10.88;;;3.33;;
74614;SDS011;63121;51.458;-0.110;2023-10-09T11:09:50;10.85;;;2.90;;
74614;SDS011;63121;51.458;-0.110;2023-10-09T11:15:17;9.40;;;3.22;;
74614;SDS011;63121;51.458;-0.110;2023-10-09T11:17:45;8.23;;;2.80;;
74614;SDS011;63121;51.458;-0.110;2023-10-09T11:22:51;11.80;;;3.40;;
74614;SDS011;63121;51.458;-0.110;2023-10-09T11:25:36;8.52;;;2.70;;
74614;SDS011;63121;51.458;-0.110;2023-10-09T11:28:15;10.63;;;3.30;;
74614;SDS011;63121;51.458;-0.110;2023-10-09T11:30:54;9.43;;;2.58;;
74614;SDS011;63121;51.458;-0.110;2023-10-09T11:33:20;8.25;;;2.88;;
74614;SDS011;63121;51.458;-0.110;2023-10-09T11:35:56;9.52;;;2.80;;
74614;SDS011;63121;51.458;-0.110;2023-10-09T11:38:22;10.43;;;2.95;;
74614;SDS011;63121;51.458;-0.110;2023-10-09T11:43:17;9.40;;;2.97;;
74614;SDS011;63121;51.458;-0.110;2023-10-09T11:45:42;8.10;;;2.90;;
74614;SDS011;63121;51.458;-0.110;2023-10-09T11:48:20;10.40;;;2.35;;
74614;SDS011;63121;51.458;-0.110;2023-10-09T11:50:51;8.80;;;2.70;;
74614;SDS011;63121;51.458;-0.110;2023-10-09T11:53:18;8.45;;;2.70;;
74614;SDS011;63121;51.458;-0.110;2023-10-09T11:55:47;10.73;;;2.80;;
74614;SDS011;63121;51.458;-0.110;2023-10-09T11:58:17;10.77;;;2.88;;
74614;SDS011;63121;51.458;-0.110;2023-10-09T12:00:52;9.10;;;2.70;;
74614;SDS011;63121;51.458;-0.110;2023-10-09T12:03:24;8.63;;;2.60;;
74614;SDS011;63121;51.458;-0.110;2023-10-09T12:05:58;11.13;;;3.05;;
74614;SDS011;63121;51.458;-0.110;2023-10-09T12:08:30;8.60;;;2.58;;
74614;SDS011;63121;51.458;-0.110;2023-10-09T12:10:57;10.70;;;2.60;;
74614;SDS011;63121;51.458;-0.110;2023-10-09T12:13:22;8.13;;;2.90;;
74614;SDS011;63121;51.458;-0.110;2023-10-09T12:15:51;12.48;;;3.35;;
74614;SDS011;63121;51.458;-0.110;2023-10-09T12:18:17;9.98;;;2.95;;
74614;SDS011;63121;51.458;-0.110;2023-10-09T12:20:44;8.05;;;2.90;;
74614;SDS011;63121;51.458;-0.110;2023-10-09T12:23:27;10.48;;;2.80;;
74614;SDS011;63121;51.458;-0.110;2023-10-09T12:25:53;9.95;;;2.72;;
74614;SDS011;63121;51.458;-0.110;2023-10-09T12:28:21;10.15;;;2.75;;
74614;SDS011;63121;51.458;-0.110;2023-10-09T12:30:48;9.50;;;2.72;;
74614;SDS011;63121;51.458;-0.110;2023-10-09T12:33:17;13.60;;;3.70;;
74614;SDS011;63121;51.458;-0.110;2023-10-09T12:35:44;10.07;;;3.15;;
74614;SDS011;63121;51.458;-0.110;2023-10-09T12:38:11;10.15;;;3.05;;
74614;SDS011;63121;51.458;-0.110;2023-10-09T12:40:37;11.23;;;2.92;;
74614;SDS011;63121;51.458;-0.110;2023-10-09T12:43:05;9.05;;;2.60;;
74614;SDS011;63121;51.458;-0.110;2023-10-09T12:45:40;8.52;;;2.78;;
74614;SDS011;63121;51.458;-0.110;2023-10-09T12:48:06;8.32;;;2.80;;
74614;SDS011;63121;51.458;-0.110;2023-10-09T12:50:34;8.68;;;2.60;;
74614;SDS011;63121;51.458;-0.110;2023-10-09T12:53:06;9.20;;;2.67;;
74614;SDS011;63121;51.458;-0.110;2023-10-09T12:55:39;9.00;;;2.53;;
74614;SDS011;63121;51.458;-0.110;2023-10-09T12:58:08;8.23;;;2.70;;
74614;SDS011;63121;51.458;-0.110;2023-10-09T13:00:35;8.77;;;3.13;;
74614;SDS011;63121;51.458;-0.110;2023-10-09T13:03:14;6.88;;;2.53;;
74614;SDS011;63121;51.458;-0.110;2023-10-09T13:05:48;8.23;;;2.55;;
74614;SDS011;63121;51.458;-0.110;2023-10-09T13:08:18;9.40;;;2.92;;
74614;SDS011;63121;51.458;-0.110;2023-10-09T13:10:47;11.38;;;3.08;;
74614;SDS011;63121;51.458;-0.110;2023-10-09T13:13:19;8.65;;;2.75;;
74614;SDS011;63121;51.458;-0.110;2023-10-09T13:15:44;14.38;;;2.85;;
74614;SDS011;63121;51.458;-0.110;2023-10-09T13:18:10;7.35;;;2.30;;
74614;SDS011;63121;51.458;-0.110;2023-10-09T13:20:35;9.32;;;3.13;;
74614;SDS011;63121;51.458;-0.110;2023-10-09T13:23:01;8.88;;;2.50;;
74614;SDS011;63121;51.458;-0.110;2023-10-09T13:25:26;9.77;;;2.92;;
74614;SDS011;63121;51.458;-0.110;2023-10-09T13:28:03;13.40;;;3.83;;
74614;SDS011;63121;51.458;-0.110;2023-10-09T13:30:28;9.82;;;2.78;;
74614;SDS011;63121;51.458;-0.110;2023-10-09T13:32:53;9.15;;;2.53;;
74614;SDS011;63121;51.458;-0.110;2023-10-09T13:35:20;8.50;;;2.75;;
74614;SDS011;63121;51.458;-0.110;2023-10-09T13:37:52;8.57;;;2.65;;
74614;SDS011;63121;51.458;-0.110;2023-10-09T13:40:21;9.38;;;3.45;;
74614;SDS011;63121;51.458;-0.110;2023-10-09T13:42:56;9.38;;;2.47;;
74614;SDS011;63121;51.458;-0.110;2023-10-09T13:45:25;8.70;;;3.03;;
74614;SDS011;63121;51.458;-0.110;2023-10-09T13:47:53;10.32;;;2.60;;
74614;SDS011;63121;51.458;-0.110;2023-10-09T13:50:20;11.27;;;2.60;;
74614;SDS011;63121;51.458;-0.110;2023-10-09T13:52:47;10.13;;;3.20;;
74614;SDS011;63121;51.458;-0.110;2023-10-09T13:55:13;9.30;;;2.67;;
74614;SDS011;63121;51.458;-0.110;2023-10-09T13:57:42;12.82;;;2.85;;
74614;SDS011;63121;51.458;-0.110;2023-10-09T14:00:14;9.95;;;2.95;;
74614;SDS011;63121;51.458;-0.110;2023-10-09T14:03:02;10.18;;;2.75;;
74614;SDS011;63121;51.458;-0.110;2023-10-09T14:08:16;9.55;;;2.47;;
74614;SDS011;63121;51.458;-0.110;2023-10-09T14:10:43;10.70;;;2.75;;
74614;SDS011;63121;51.458;-0.110;2023-10-09T14:13:13;10.07;;;2.85;;
74614;SDS011;63121;51.458;-0.110;2023-10-09T14:15:39;9.75;;;2.80;;
74614;SDS011;63121;51.458;-0.110;2023-10-09T14:18:09;9.57;;;3.03;;
74614;SDS011;63121;51.458;-0.110;2023-10-09T14:20:37;12.45;;;3.13;;
74614;SDS011;63121;51.458;-0.110;2023-10-09T14:23:02;9.55;;;2.97;;
74614;SDS011;63121;51.458;-0.110;2023-10-09T14:25:34;10.57;;;3.10;;
74614;SDS011;63121;51.458;-0.110;2023-10-09T14:28:07;9.10;;;2.90;;
74614;SDS011;63121;51.458;-0.110;2023-10-09T14:30:36;8.73;;;2.80;;
74614;SDS011;63121;51.458;-0.110;2023-10-09T14:33:09;10.48;;;2.92;;
74614;SDS011;63121;51.458;-0.110;2023-10-09T14:35:39;11.35;;;3.20;;
74614;SDS011;63121;51.458;-0.110;2023-10-09T14:38:05;11.02;;;3.08;;
74614;SDS011;63121;51.458;-0.110;2023-10-09T14:43:07;8.30;;;2.50;;
74614;SDS011;63121;51.458;-0.110;2023-10-09T14:45:36;10.32;;;3.20;;
74614;SDS011;63121;51.458;-0.110;2023-10-09T14:48:01;10.13;;;3.08;;
74614;SDS011;63121;51.458;-0.110;2023-10-09T14:50:27;8.80;;;2.95;;
74614;SDS011;63121;51.458;-0.110;2023-10-09T14:52:52;13.50;;;3.00;;
74614;SDS011;63121;51.458;-0.110;2023-10-09T14:55:18;8.77;;;3.13;;
74614;SDS011;63121;51.458;-0.110;2023-10-09T14:57:53;14.02;;;3.30;;
74614;SDS011;63121;51.458;-0.110;2023-10-09T15:00:19;9.82;;;2.90;;
74614;SDS011;63121;51.458;-0.110;2023-10-09T15:02:48;9.15;;;3.03;;
74614;SDS011;63121;51.458;-0.110;2023-10-09T15:05:17;12.90;;;3.55;;
74614;SDS011;63121;51.458;-0.110;2023-10-09T15:07:42;12.98;;;3.38;;
74614;SDS011;63121;51.458;-0.110;2023-10-09T15:10:08;10.15;;;3.13;;
74614;SDS011;63121;51.458;-0.110;2023-10-09T15:12:34;9.52;;;3.13;;
74614;SDS011;63121;51.458;-0.110;2023-10-09T15:15:05;12.68;;;2.90;;
74614;SDS011;63121;51.458;-0.110;2023-10-09T15:17:38;11.93;;;3.08;;
74614;SDS011;63121;51.458;-0.110;2023-10-09T15:20:10;11.80;;;3.35;;
74614;SDS011;63121;51.458;-0.110;2023-10-09T15:22:39;8.57;;;3.05;;
74614;SDS011;63121;51.458;-0.110;2023-10-09T15:25:07;9.30;;;2.92;;
74614;SDS011;63121;51.458;-0.110;2023-10-09T15:27:34;13.95;;;3.03;;
74614;SDS011;63121;51.458;-0.110;2023-10-09T15:29:59;13.80;;;3.20;;
74614;SDS011;63121;51.458;-0.110;2023-10-09T15:32:25;9.68;;;3.40;;
74614;SDS011;63121;51.458;-0.110;2023-10-09T15:34:58;10.75;;;3.40;;
74614;SDS011;63121;51.458;-0.110;2023-10-09T15:37:23;11.40;;;3.60;;
74614;SDS011;63121;51.458;-0.110;2023-10-09T15:39:49;12.15;;;3.20;;
74614;SDS011;63121;51.458;-0.110;2023-10-09T15:42:15;10.85;;;3.35;;
74614;SDS011;63121;51.458;-0.110;2023-10-09T15:47:07;9.75;;;2.90;;
74614;SDS011;63121;51.458;-0.110;2023-10-09T15:51:59;12.45;;;2.85;;
74614;SDS011;63121;51.458;-0.110;2023-10-09T15:54:26;10.77;;;3.00;;
74614;SDS011;63121;51.458;-0.110;2023-10-09T15:56:52;14.88;;;2.92;;
74614;SDS011;63121;51.458;-0.110;2023-10-09T15:59:19;13.90;;;3.33;;
74614;SDS011;63121;51.458;-0.110;2023-10-09T16:01:45;9.73;;;3.40;;
74614;SDS011;63121;51.458;-0.110;2023-10-09T16:04:10;13.32;;;3.08;;
74614;SDS011;63121;51.458;-0.110;2023-10-09T16:06:36;14.07;;;3.13;;
74614;SDS011;63121;51.458;-0.110;2023-10-09T16:09:06;8.85;;;3.00;;